SKBG/BGA METAR and TAF weather

Enter ICAO airport designator
Station Type Date Time Source
SKBG METAR 2021/07/30 22:00 UTC NOAA

SKBG 302200Z 32007KT 9999 VCSH SCT015 SCT080 25/19 Q1014 RMK VCSHS/SW A2995


Station Type Date Time Source
SKBG Decoded METAR 2021/07/30 22:00 UTC NOAA

Bucaramanga / Palonegro, Colombia (SKBG) 07-06N 073-12W
Jul 30, 2021 - 06:00 PM EDT / 2021.07.30 2200 UTC
Wind: from the NW (320 degrees) at 8 MPH (7 KT):0
Visibility: greater than 7 mile(s):0
Sky conditions: partly cloudy
Weather: showers in the vicinity
Temperature: 77 F (25 C)
Dew Point: 66 F (19 C)
Relative Humidity: 69%
Pressure (altimeter): 29.94 in. Hg (1014 hPa)
ob: SKBG 302200Z 32007KT 9999 VCSH SCT015 SCT080 25/19 Q1014 RMK VCSHS/SW A2995
cycle: 22

Station Type Date Time Source
SKBG TAF 2021/07/30 18:36 UTC NOAA

TAF TAF SKBG 301630Z 3018/3118 33008KT 9999 SCT015
FM310100 VRB02KT 9999 SCT010 BKN070
TEMPO 3107/3113 3000 BCFG BKN008
FM311500 32007KT 9999 SCT017 TX27/3018Z TN19/3110Z

Example: see airport list